createdAt,value
2022-12-01T00:01:07.231Z,5.26
2022-12-01T00:03:34.117Z,5.27
2022-12-01T00:06:01.668Z,5.26
2022-12-01T00:08:30.037Z,5.26
2022-12-01T00:11:03.446Z,5.27
2022-12-01T00:13:30.103Z,5.27
2022-12-01T00:15:56.659Z,5.26
2022-12-01T00:18:23.187Z,5.27
2022-12-01T00:20:55.889Z,5.26
2022-12-01T00:23:23.181Z,5.28
2022-12-01T00:25:51.090Z,5.27
2022-12-01T00:28:17.670Z,5.28
2022-12-01T00:30:44.321Z,5.26
2022-12-01T00:33:10.899Z,5.28
2022-12-01T00:35:37.423Z,5.29
2022-12-01T00:38:03.980Z,5.25
2022-12-01T00:40:30.513Z,5.27
2022-12-01T00:42:58.380Z,5.28
2022-12-01T00:45:24.918Z,5.27
2022-12-01T00:47:51.449Z,5.27
2022-12-01T00:50:17.975Z,5.24
2022-12-01T00:52:44.505Z,5.25
2022-12-01T00:55:11.158Z,5.26
2022-12-01T00:57:37.751Z,5.26
2022-12-01T01:00:07.075Z,5.12
2022-12-01T01:02:33.693Z,5.21
2022-12-01T01:05:00.273Z,5.24
2022-12-01T01:07:26.834Z,5.24
2022-12-01T01:09:53.392Z,5.24
2022-12-01T01:12:19.936Z,5.22
2022-12-01T01:14:46.451Z,5.23
2022-12-01T01:17:14.317Z,5.23
2022-12-01T01:19:40.829Z,5.24
2022-12-01T01:22:07.364Z,5.23
2022-12-01T01:24:33.891Z,5.24
2022-12-01T01:27:00.489Z,5.21
2022-12-01T01:29:27.035Z,5.14
2022-12-01T01:31:53.588Z,4.85
2022-12-01T01:34:21.461Z,5.08
2022-12-01T01:36:48.534Z,5.20
2022-12-01T01:39:15.187Z,5.21
2022-12-01T01:41:42.005Z,5.21
2022-12-01T01:44:41.863Z,5.19
2022-12-01T01:47:08.474Z,4.78
2022-12-01T01:49:36.555Z,5.11
2022-12-01T01:52:04.551Z,5.17
2022-12-01T01:54:35.787Z,5.02
2022-12-01T01:57:05.241Z,5.14
2022-12-01T01:59:36.296Z,5.18
2022-12-01T02:02:08.876Z,5.16
2022-12-01T02:04:40.249Z,5.20
2022-12-01T02:07:08.323Z,5.16
2022-12-01T02:09:36.172Z,5.17
2022-12-01T02:12:16.127Z,5.16
2022-12-01T02:15:03.774Z,5.18
2022-12-01T02:17:41.512Z,5.15
2022-12-01T02:20:44.982Z,5.16
2022-12-01T02:23:41.540Z,5.15
2022-12-01T02:26:25.613Z,5.16
2022-12-01T02:29:11.106Z,5.16
2022-12-01T02:31:47.039Z,5.17
2022-12-01T02:34:19.349Z,5.14
2022-12-01T02:36:52.654Z,5.13
2022-12-01T02:39:26.963Z,5.05
2022-12-01T02:41:59.263Z,5.15
2022-12-01T02:44:32.357Z,5.12
2022-12-01T02:47:05.258Z,5.15
2022-12-01T02:49:36.155Z,5.13
2022-12-01T02:52:05.989Z,5.13
2022-12-01T02:54:33.637Z,5.13
2022-12-01T02:57:00.183Z,5.11
2022-12-01T02:59:26.739Z,5.17
2022-12-01T03:02:06.061Z,5.13
2022-12-01T03:04:53.010Z,5.17
2022-12-01T03:07:38.335Z,5.11
2022-12-01T03:10:15.288Z,5.11
2022-12-01T03:12:55.762Z,5.12
2022-12-01T03:15:33.954Z,5.14
2022-12-01T03:18:10.093Z,5.10
2022-12-01T03:20:41.210Z,4.86
2022-12-01T03:23:10.811Z,5.08
2022-12-01T03:25:41.820Z,5.09
2022-12-01T03:28:21.313Z,5.09
2022-12-01T03:30:52.416Z,5.07
2022-12-01T03:33:26.403Z,5.10
2022-12-01T03:35:57.790Z,5.11
2022-12-01T03:38:26.318Z,5.10
2022-12-01T03:40:58.226Z,5.10
2022-12-01T03:43:30.277Z,5.10
2022-12-01T03:46:03.263Z,5.12
2022-12-01T03:48:31.686Z,5.07
2022-12-01T03:51:06.648Z,5.08
2022-12-01T03:53:39.980Z,5.08
2022-12-01T03:56:07.738Z,5.10
2022-12-01T03:58:38.341Z,5.11
2022-12-01T04:01:07.149Z,5.09
2022-12-01T04:03:35.166Z,5.10
2022-12-01T04:06:01.719Z,5.11
2022-12-01T04:08:30.590Z,5.08
2022-12-01T04:10:57.368Z,5.09
2022-12-01T04:13:23.967Z,5.07
2022-12-01T04:15:51.304Z,5.05
2022-12-01T04:18:18.406Z,4.97
2022-12-01T04:20:47.011Z,5.05
2022-12-01T04:23:33.744Z,5.04
2022-12-01T04:26:01.118Z,5.05
2022-12-01T04:28:27.649Z,5.04
2022-12-01T04:30:54.428Z,5.05
2022-12-01T04:33:21.763Z,5.03
2022-12-01T04:35:57.716Z,5.05
2022-12-01T04:38:30.059Z,5.07
2022-12-01T04:40:57.246Z,5.03
2022-12-01T04:43:23.806Z,5.03
2022-12-01T04:45:50.319Z,5.03
2022-12-01T04:48:16.897Z,5.04
2022-12-01T04:50:43.434Z,5.04
2022-12-01T04:53:11.273Z,5.04
2022-12-01T04:55:39.093Z,5.02
2022-12-01T04:58:05.728Z,5.05
2022-12-01T05:00:32.373Z,5.04
2022-12-01T05:02:59.768Z,5.01
2022-12-01T05:05:26.457Z,5.05
2022-12-01T05:07:53.006Z,5.02
2022-12-01T05:10:21.501Z,5.04
2022-12-01T05:12:48.063Z,5.03
2022-12-01T05:15:14.644Z,4.95
2022-12-01T05:17:41.402Z,5.04
2022-12-01T05:20:37.806Z,4.68
2022-12-01T05:23:06.036Z,4.92
2022-12-01T05:25:34.650Z,4.97
2022-12-01T05:28:01.184Z,4.89
2022-12-01T05:30:28.930Z,4.91
2022-12-01T05:32:55.809Z,4.99
2022-12-01T05:35:22.596Z,4.99
2022-12-01T05:37:49.158Z,4.97
2022-12-01T05:40:15.936Z,4.99
2022-12-01T05:42:43.808Z,4.96
2022-12-01T05:45:10.982Z,4.96
2022-12-01T05:47:37.502Z,4.96
2022-12-01T05:50:05.967Z,4.97
2022-12-01T05:52:34.098Z,4.98
2022-12-01T05:55:00.656Z,4.97
2022-12-01T05:57:27.193Z,4.98
2022-12-01T05:59:55.289Z,4.98
2022-12-01T06:02:21.884Z,4.99
2022-12-01T06:04:48.480Z,4.99
2022-12-01T06:07:15.006Z,4.98
2022-12-01T06:09:41.527Z,4.98
2022-12-01T06:12:08.058Z,4.36
2022-12-01T06:14:34.571Z,4.84
2022-12-01T06:17:02.514Z,4.93
2022-12-01T06:19:29.122Z,4.95
2022-12-01T06:21:55.668Z,4.94
2022-12-01T06:24:22.218Z,4.93
2022-12-01T06:26:48.885Z,4.95
2022-12-01T06:29:15.711Z,4.96
2022-12-01T06:31:42.323Z,4.93
2022-12-01T06:34:10.638Z,4.94
2022-12-01T06:36:37.203Z,4.91
2022-12-01T06:39:06.521Z,4.91
2022-12-01T06:41:33.039Z,4.93
2022-12-01T06:44:01.015Z,4.95
2022-12-01T06:46:27.657Z,4.96
2022-12-01T06:48:54.343Z,4.93
2022-12-01T06:51:22.379Z,4.94
2022-12-01T06:53:53.459Z,4.94
2022-12-01T06:56:20.573Z,4.95
2022-12-01T06:58:48.567Z,4.97
2022-12-01T07:01:16.075Z,4.89
2022-12-01T07:03:43.018Z,4.95
2022-12-01T07:06:09.818Z,4.93
2022-12-01T07:08:37.702Z,4.91
2022-12-01T07:11:05.804Z,4.93
2022-12-01T07:13:33.946Z,4.91
2022-12-01T07:16:01.595Z,4.90
2022-12-01T07:18:28.779Z,4.92
2022-12-01T07:20:59.051Z,4.89
2022-12-01T07:23:25.565Z,4.93
2022-12-01T07:25:59.693Z,4.90
2022-12-01T07:28:26.905Z,4.91
2022-12-01T07:30:53.504Z,4.94
2022-12-01T07:33:20.243Z,4.45
2022-12-01T07:35:46.785Z,3.96
2022-12-01T07:38:17.777Z,4.67
2022-12-01T07:40:47.159Z,4.42
2022-12-01T07:43:15.058Z,4.80
2022-12-01T07:45:41.621Z,4.50
2022-12-01T07:48:08.203Z,3.76
2022-12-01T07:50:34.708Z,4.58
2022-12-01T07:53:01.242Z,4.22
2022-12-01T07:55:27.789Z,3.01
2022-12-01T07:57:54.325Z,2.47
2022-12-01T08:00:22.692Z,2.18
2022-12-01T08:02:49.453Z,2.02
2022-12-01T08:05:16.182Z,2.73
2022-12-01T08:07:42.708Z,3.54
2022-12-01T08:10:10.113Z,3.58
2022-12-01T08:12:36.646Z,4.12
2022-12-01T08:15:03.558Z,3.78
2022-12-01T08:17:31.428Z,3.20
2022-12-01T08:19:57.924Z,2.72
2022-12-01T08:22:24.470Z,3.80
2022-12-01T08:24:50.987Z,3.57
2022-12-01T08:27:17.504Z,2.49
2022-12-01T08:29:44.056Z,2.19
2022-12-01T08:32:10.613Z,3.48
2022-12-01T08:34:38.769Z,3.87
2022-12-01T08:37:05.304Z,2.92
2022-12-01T08:39:31.843Z,2.33
2022-12-01T08:41:58.454Z,2.56
2022-12-01T08:44:25.050Z,2.55
2022-12-01T08:46:51.730Z,3.17
2022-12-01T08:49:18.280Z,3.70
2022-12-01T08:51:46.144Z,3.30
2022-12-01T08:54:12.693Z,3.68
2022-12-01T08:56:41.211Z,3.46
2022-12-01T08:59:08.528Z,3.87
2022-12-01T09:01:35.861Z,3.77
2022-12-01T09:04:06.172Z,4.24
2022-12-01T09:06:34.988Z,2.91
2022-12-01T09:09:02.919Z,2.20
2022-12-01T09:11:29.469Z,3.58
2022-12-01T09:13:56.019Z,2.57
2022-12-01T09:16:22.587Z,2.04
2022-12-01T09:18:49.304Z,1.90
2022-12-01T09:21:17.869Z,1.78
2022-12-01T09:23:44.745Z,2.39
2022-12-01T09:26:17.997Z,2.53
2022-12-01T09:28:44.736Z,2.58
2022-12-01T09:31:12.980Z,2.34
2022-12-01T09:33:39.982Z,2.39
2022-12-01T09:36:08.368Z,2.25
2022-12-01T09:38:36.430Z,1.96
2022-12-01T09:41:07.023Z,2.48
2022-12-01T09:43:41.416Z,2.73
2022-12-01T09:46:14.387Z,2.28
2022-12-01T09:48:44.896Z,2.72
2022-12-01T09:51:14.445Z,2.02
2022-12-01T09:53:41.911Z,2.35
2022-12-01T09:56:18.404Z,1.78
2022-12-01T09:58:50.725Z,2.40
2022-12-01T10:01:23.036Z,3.05
2022-12-01T10:03:57.670Z,3.59
2022-12-01T10:06:32.158Z,3.28
2022-12-01T10:09:07.958Z,3.67
2022-12-01T10:11:36.901Z,3.67
2022-12-01T10:14:16.414Z,3.66
2022-12-01T10:16:55.622Z,2.62
2022-12-01T10:19:28.603Z,3.76
2022-12-01T10:22:15.038Z,3.78
2022-12-01T10:24:53.173Z,3.48
2022-12-01T10:27:35.090Z,3.79
2022-12-01T10:30:06.955Z,2.90
2022-12-01T10:32:44.906Z,2.54
2022-12-01T10:35:15.279Z,3.45
2022-12-01T10:37:45.447Z,2.62
2022-12-01T10:40:14.540Z,2.10
2022-12-01T10:42:42.874Z,2.22
2022-12-01T10:45:16.786Z,3.25
2022-12-01T10:48:08.692Z,3.54
2022-12-01T10:50:36.391Z,3.67
2022-12-01T10:53:03.712Z,3.90
2022-12-01T10:55:35.010Z,4.12
2022-12-01T10:58:12.927Z,3.59
2022-12-01T11:00:59.661Z,3.88
2022-12-01T11:03:30.277Z,3.93
2022-12-01T11:06:00.924Z,4.01
2022-12-01T11:08:36.294Z,4.13
2022-12-01T11:11:03.301Z,4.20
2022-12-01T11:13:33.969Z,3.88
2022-12-01T11:16:04.736Z,3.86
2022-12-01T11:18:33.589Z,3.27
2022-12-01T11:21:08.988Z,3.44
2022-12-01T11:23:37.617Z,3.45
2022-12-01T11:26:13.351Z,3.22
2022-12-01T11:28:50.672Z,3.61
2022-12-01T11:31:20.531Z,3.78
2022-12-01T11:33:51.023Z,4.08
2022-12-01T11:36:25.823Z,4.18
2022-12-01T11:38:57.404Z,4.22
2022-12-01T11:41:31.339Z,4.24
2022-12-01T11:44:02.100Z,4.25
2022-12-01T11:46:36.968Z,4.28
2022-12-01T11:49:04.080Z,4.30
2022-12-01T11:51:37.017Z,4.31
2022-12-01T11:54:16.627Z,4.33
2022-12-01T11:56:44.572Z,4.34
2022-12-01T11:59:13.584Z,4.35
2022-12-01T12:01:53.133Z,4.36
2022-12-01T12:04:40.083Z,4.35
2022-12-01T12:07:13.386Z,4.36
2022-12-01T12:10:01.724Z,4.38
2022-12-01T12:12:43.453Z,4.37
2022-12-01T12:15:25.880Z,4.37
2022-12-01T12:18:14.018Z,4.38
2022-12-01T12:20:54.619Z,4.38
2022-12-01T12:23:36.399Z,4.39
2022-12-01T12:26:09.681Z,4.40
2022-12-01T12:28:52.551Z,4.40
2022-12-01T12:31:28.151Z,4.40
2022-12-01T12:34:10.823Z,4.39
2022-12-01T12:36:43.748Z,4.39
2022-12-01T12:39:28.405Z,4.42
2022-12-01T12:41:57.023Z,4.41
2022-12-01T12:44:46.300Z,4.42
2022-12-01T12:47:25.478Z,4.42
2022-12-01T12:50:03.071Z,4.43
2022-12-01T12:52:33.443Z,4.43
2022-12-01T12:55:10.874Z,4.43
2022-12-01T12:57:43.479Z,4.45
2022-12-01T13:00:15.963Z,4.35
2022-12-01T13:02:47.148Z,4.43
2022-12-01T13:05:20.563Z,4.43
2022-12-01T13:07:52.141Z,4.44
2022-12-01T13:10:28.246Z,4.43
2022-12-01T13:13:00.541Z,4.44
2022-12-01T13:15:28.815Z,4.45
2022-12-01T13:17:58.416Z,4.46
2022-12-01T13:20:29.125Z,4.45
2022-12-01T13:22:57.689Z,4.46
2022-12-01T13:25:28.207Z,4.46
2022-12-01T13:27:56.511Z,4.44
2022-12-01T13:30:26.060Z,4.44
2022-12-01T13:33:00.921Z,4.49
2022-12-01T13:35:31.036Z,4.49
2022-12-01T13:38:22.165Z,4.46
2022-12-01T13:40:49.689Z,4.47
2022-12-01T13:43:19.617Z,4.49
2022-12-01T13:45:47.920Z,4.50
2022-12-01T13:48:29.799Z,4.50
2022-12-01T13:51:00.610Z,4.47
2022-12-01T13:53:30.226Z,4.46
2022-12-01T13:55:59.916Z,4.49
2022-12-01T13:58:41.175Z,4.49
2022-12-01T14:01:43.633Z,4.49
2022-12-01T14:04:28.800Z,4.50
2022-12-01T14:07:23.680Z,4.50
2022-12-01T14:09:54.136Z,4.49
2022-12-01T14:12:24.197Z,4.50
2022-12-01T14:14:54.943Z,4.47
2022-12-01T14:17:28.903Z,4.52
2022-12-01T14:20:04.908Z,4.50
2022-12-01T14:22:36.749Z,4.51
2022-12-01T14:25:07.556Z,4.51
2022-12-01T14:27:37.035Z,4.51
2022-12-01T14:30:50.243Z,4.51
2022-12-01T14:33:46.412Z,4.51
2022-12-01T14:36:27.051Z,4.51
2022-12-01T14:39:03.360Z,4.50
2022-12-01T14:41:33.296Z,4.50
2022-12-01T14:44:05.821Z,4.51
2022-12-01T14:46:40.999Z,4.50
2022-12-01T14:49:14.087Z,4.51
2022-12-01T14:51:46.050Z,4.49
2022-12-01T14:54:20.944Z,4.52
2022-12-01T14:56:51.237Z,4.51
2022-12-01T14:59:22.007Z,4.52
2022-12-01T15:01:51.483Z,4.52
2022-12-01T15:04:18.515Z,4.52
2022-12-01T15:06:45.488Z,4.52
2022-12-01T15:12:04.726Z,4.47
2022-12-01T15:14:33.612Z,4.50
2022-12-01T15:17:02.623Z,4.52
2022-12-01T15:19:35.902Z,4.52
2022-12-01T15:22:06.520Z,4.54
2022-12-01T15:24:34.031Z,4.52
2022-12-01T15:27:04.037Z,4.52
2022-12-01T15:29:33.004Z,4.53
2022-12-01T15:32:01.419Z,4.51
2022-12-01T15:34:31.719Z,4.51
2022-12-01T15:36:59.718Z,4.49
2022-12-01T15:39:32.545Z,4.52
2022-12-01T15:42:00.041Z,4.51
2022-12-01T15:44:31.519Z,4.53
2022-12-01T15:46:58.325Z,4.52
2022-12-01T15:49:30.066Z,4.53
2022-12-01T15:52:06.210Z,4.52
2022-12-01T15:54:33.297Z,4.54
2022-12-01T15:57:00.788Z,4.53
2022-12-01T15:59:33.230Z,4.52
2022-12-01T16:02:05.515Z,4.52
2022-12-01T16:04:32.360Z,4.52
2022-12-01T16:07:01.851Z,4.52
2022-12-01T16:09:31.556Z,4.52
2022-12-01T16:12:23.506Z,4.52
2022-12-01T16:14:55.043Z,4.52
2022-12-01T16:17:22.973Z,4.52
2022-12-01T16:20:21.654Z,4.52
2022-12-01T16:22:52.573Z,4.51
2022-12-01T16:25:27.580Z,4.49
2022-12-01T16:27:56.879Z,4.50
2022-12-01T16:30:27.274Z,4.50
2022-12-01T16:33:01.780Z,4.51
2022-12-01T16:35:30.462Z,4.51
2022-12-01T16:37:58.075Z,4.52
2022-12-01T16:40:25.480Z,4.52
2022-12-01T16:42:52.228Z,4.52
2022-12-01T16:45:19.775Z,4.52
2022-12-01T16:47:48.546Z,4.52
2022-12-01T16:50:16.488Z,4.51
2022-12-01T16:52:44.696Z,4.50
2022-12-01T16:55:25.706Z,4.46
2022-12-01T16:57:52.287Z,4.49
2022-12-01T17:00:19.522Z,4.50
2022-12-01T17:02:47.491Z,4.52
2022-12-01T17:05:14.139Z,4.51
2022-12-01T17:07:40.708Z,4.50
2022-12-01T17:10:08.438Z,4.49
2022-12-01T17:12:34.947Z,4.51
2022-12-01T17:15:01.551Z,4.51
2022-12-01T17:17:28.508Z,4.50
2022-12-01T17:19:56.557Z,4.53
2022-12-01T17:22:23.291Z,4.47
2022-12-01T17:24:50.044Z,4.50
2022-12-01T17:27:16.858Z,4.50
2022-12-01T17:29:46.222Z,4.51
2022-12-01T17:32:13.631Z,4.49
2022-12-01T17:34:40.239Z,4.49
2022-12-01T17:37:08.241Z,4.50
2022-12-01T17:39:34.789Z,4.49
2022-12-01T17:42:01.407Z,4.49
2022-12-01T17:44:28.137Z,4.49
2022-12-01T17:46:54.703Z,4.49
2022-12-01T17:49:21.426Z,4.50
2022-12-01T17:51:47.985Z,4.50
2022-12-01T17:54:15.964Z,4.50
2022-12-01T17:56:42.713Z,4.47
2022-12-01T17:59:09.275Z,4.48
2022-12-01T18:01:35.953Z,4.49
2022-12-01T18:04:02.602Z,4.50
2022-12-01T18:06:29.377Z,4.47
2022-12-01T18:08:57.360Z,4.45
2022-12-01T18:11:25.261Z,4.48
2022-12-01T18:13:52.438Z,4.49
2022-12-01T18:16:21.390Z,4.48
2022-12-01T18:18:48.447Z,4.46
2022-12-01T18:21:17.174Z,4.45
2022-12-01T18:23:49.201Z,4.47
2022-12-01T18:26:16.457Z,4.46
2022-12-01T18:28:44.565Z,4.46
2022-12-01T18:31:13.943Z,4.46
2022-12-01T18:33:42.504Z,4.46
2022-12-01T18:36:12.050Z,4.45
2022-12-01T18:38:39.407Z,4.48
2022-12-01T18:41:06.059Z,4.46
2022-12-01T18:43:33.311Z,4.46
2022-12-01T18:46:03.104Z,4.45
2022-12-01T18:48:29.632Z,4.44
2022-12-01T18:50:59.494Z,4.45
2022-12-01T18:53:26.277Z,4.46
2022-12-01T18:55:52.796Z,4.47
2022-12-01T18:58:19.335Z,4.46
2022-12-01T19:00:45.932Z,4.46
2022-12-01T19:03:14.107Z,4.45
2022-12-01T19:05:41.282Z,4.45
2022-12-01T19:08:08.079Z,4.45
2022-12-01T19:10:34.657Z,4.46
2022-12-01T19:13:01.184Z,4.45
2022-12-01T19:15:27.723Z,4.43
2022-12-01T19:17:54.965Z,4.46
2022-12-01T19:20:22.858Z,4.45
2022-12-01T19:22:49.425Z,4.43
2022-12-01T19:25:15.990Z,4.39
2022-12-01T19:27:42.663Z,4.44
2022-12-01T19:30:10.214Z,4.46
2022-12-01T19:32:36.992Z,4.51
2022-12-01T19:35:04.740Z,4.51
2022-12-01T19:37:32.633Z,4.54
2022-12-01T19:39:59.160Z,4.55
2022-12-01T19:42:26.098Z,4.58
2022-12-01T19:44:52.851Z,4.61
2022-12-01T19:47:22.355Z,4.63
2022-12-01T19:49:49.195Z,4.64
2022-12-01T19:52:15.993Z,4.66
2022-12-01T19:54:43.875Z,4.68
2022-12-01T19:57:10.480Z,4.71
2022-12-01T19:59:37.049Z,4.71
2022-12-01T20:02:03.639Z,4.71
2022-12-01T20:04:30.374Z,4.73
2022-12-01T20:06:56.920Z,4.74
2022-12-01T20:09:23.490Z,4.77
2022-12-01T20:11:51.450Z,4.80
2022-12-01T20:14:18.121Z,4.82
2022-12-01T20:16:44.745Z,4.82
2022-12-01T20:19:11.376Z,4.84
2022-12-01T20:21:42.369Z,4.86
2022-12-01T20:24:12.759Z,4.87
2022-12-01T20:26:42.016Z,4.88
2022-12-01T20:29:11.868Z,4.86
2022-12-01T20:31:38.884Z,4.85
2022-12-01T20:34:07.920Z,4.88
2022-12-01T20:36:34.931Z,4.89
2022-12-01T20:39:01.593Z,4.91
2022-12-01T20:41:28.225Z,4.94
2022-12-01T20:43:54.763Z,4.95
2022-12-01T20:46:22.970Z,4.96
2022-12-01T20:48:49.616Z,4.96
2022-12-01T20:51:16.263Z,4.98
2022-12-01T20:53:59.706Z,4.98
2022-12-01T20:56:29.519Z,4.97
2022-12-01T20:58:56.073Z,4.98
2022-12-01T21:01:24.024Z,4.97
2022-12-01T21:03:53.867Z,4.99
2022-12-01T21:06:20.941Z,5.01
2022-12-01T21:08:49.078Z,5.01
2022-12-01T21:11:18.907Z,5.03
2022-12-01T21:13:46.430Z,5.04
2022-12-01T21:16:26.305Z,5.05
2022-12-01T21:18:55.400Z,5.06
2022-12-01T21:21:24.818Z,5.05
2022-12-01T21:24:11.262Z,5.06
2022-12-01T21:26:39.397Z,5.05
2022-12-01T21:29:17.264Z,5.06
2022-12-01T21:31:45.481Z,5.07
2022-12-01T21:34:17.198Z,5.08
2022-12-01T21:36:44.414Z,5.08
2022-12-01T21:39:14.435Z,5.09
2022-12-01T21:41:41.120Z,5.11
2022-12-01T21:44:13.343Z,5.10
2022-12-01T21:46:41.983Z,5.10
2022-12-01T21:49:19.780Z,5.10
2022-12-01T21:51:47.663Z,5.09
2022-12-01T21:54:18.740Z,5.12
2022-12-01T21:56:45.515Z,5.12
2022-12-01T21:59:18.911Z,5.13
2022-12-01T22:01:46.111Z,5.13
2022-12-01T22:04:19.271Z,5.14
2022-12-01T22:06:48.936Z,5.12
2022-12-01T22:09:23.100Z,5.12
2022-12-01T22:11:52.935Z,5.13
2022-12-01T22:14:22.049Z,5.12
2022-12-01T22:16:52.969Z,5.12
2022-12-01T22:19:27.436Z,5.12
2022-12-01T22:22:00.612Z,5.12
2022-12-01T22:24:29.436Z,5.16
2022-12-01T22:27:11.549Z,5.14
2022-12-01T22:29:41.777Z,5.15
2022-12-01T22:32:44.021Z,5.15
2022-12-01T22:35:22.033Z,5.15
2022-12-01T22:37:50.703Z,5.13
2022-12-01T22:40:32.187Z,5.13
2022-12-01T22:43:00.191Z,5.17
2022-12-01T22:45:26.818Z,5.16
2022-12-01T22:47:56.430Z,5.16
2022-12-01T22:50:28.391Z,5.15
2022-12-01T22:52:59.041Z,5.15
2022-12-01T22:55:25.647Z,5.16
2022-12-01T22:57:52.377Z,5.16
2022-12-01T23:00:22.896Z,5.15
2022-12-01T23:02:50.875Z,5.16
2022-12-01T23:05:23.286Z,5.16
2022-12-01T23:07:52.692Z,5.15
2022-12-01T23:10:22.225Z,5.15
2022-12-01T23:12:50.951Z,5.15
2022-12-01T23:15:25.544Z,5.13
2022-12-01T23:17:52.488Z,5.13
2022-12-01T23:20:31.735Z,5.15
2022-12-01T23:23:02.207Z,5.13
2022-12-01T23:25:29.728Z,5.16
2022-12-01T23:27:59.948Z,5.15
2022-12-01T23:30:27.176Z,5.14
2022-12-01T23:33:11.588Z,5.16
2022-12-01T23:35:41.307Z,5.14
2022-12-01T23:38:14.237Z,5.15
2022-12-01T23:40:40.778Z,5.13
2022-12-01T23:43:14.888Z,5.15
2022-12-01T23:45:41.443Z,5.16
2022-12-01T23:48:18.070Z,5.15
2022-12-01T23:50:45.464Z,5.14
2022-12-01T23:53:26.461Z,5.15
2022-12-01T23:55:53.329Z,5.13
2022-12-01T23:58:20.052Z,5.12
